sensor_id;sensor_type;location;lat;lon;timestamp;P1;durP1;ratioP1;P2;durP2;ratioP2
3801;SDS011;1916;51.798;12.246;2022-08-21T00:00:11;20.60;;;14.10;;
3801;SDS011;1916;51.798;12.246;2022-08-21T00:02:16;20.53;;;14.47;;
3801;SDS011;1916;51.798;12.246;2022-08-21T00:04:19;19.97;;;13.70;;
3801;SDS011;1916;51.798;12.246;2022-08-21T00:06:23;17.57;;;13.47;;
3801;SDS011;1916;51.798;12.246;2022-08-21T00:08:25;24.13;;;14.43;;
3801;SDS011;1916;51.798;12.246;2022-08-21T00:10:27;18.23;;;12.97;;
3801;SDS011;1916;51.798;12.246;2022-08-21T00:12:29;20.73;;;14.10;;
3801;SDS011;1916;51.798;12.246;2022-08-21T00:14:32;15.93;;;12.87;;
3801;SDS011;1916;51.798;12.246;2022-08-21T00:16:35;22.33;;;13.77;;
3801;SDS011;1916;51.798;12.246;2022-08-21T00:18:37;16.30;;;12.60;;
3801;SDS011;1916;51.798;12.246;2022-08-21T00:20:39;19.33;;;13.00;;
3801;SDS011;1916;51.798;12.246;2022-08-21T00:22:42;17.93;;;12.87;;
3801;SDS011;1916;51.798;12.246;2022-08-21T00:24:44;14.53;;;11.70;;
3801;SDS011;1916;51.798;12.246;2022-08-21T00:26:46;17.73;;;13.20;;
3801;SDS011;1916;51.798;12.246;2022-08-21T00:28:48;14.23;;;11.90;;
3801;SDS011;1916;51.798;12.246;2022-08-21T00:30:51;14.10;;;10.63;;
3801;SDS011;1916;51.798;12.246;2022-08-21T00:32:53;14.83;;;11.03;;
3801;SDS011;1916;51.798;12.246;2022-08-21T00:34:56;14.40;;;11.40;;
3801;SDS011;1916;51.798;12.246;2022-08-21T00:36:59;16.63;;;11.97;;
3801;SDS011;1916;51.798;12.246;2022-08-21T00:39:02;13.23;;;11.23;;
3801;SDS011;1916;51.798;12.246;2022-08-21T00:41:06;14.50;;;11.20;;
3801;SDS011;1916;51.798;12.246;2022-08-21T00:43:30;15.10;;;11.17;;
3801;SDS011;1916;51.798;12.246;2022-08-21T00:45:34;16.20;;;11.67;;
3801;SDS011;1916;51.798;12.246;2022-08-21T00:47:36;17.10;;;11.20;;
3801;SDS011;1916;51.798;12.246;2022-08-21T00:49:39;21.20;;;11.70;;
3801;SDS011;1916;51.798;12.246;2022-08-21T00:51:43;12.00;;;10.30;;
3801;SDS011;1916;51.798;12.246;2022-08-21T00:53:56;10.90;;;9.17;;
3801;SDS011;1916;51.798;12.246;2022-08-21T00:56:00;10.77;;;9.33;;
3801;SDS011;1916;51.798;12.246;2022-08-21T00:58:05;13.87;;;9.97;;
3801;SDS011;1916;51.798;12.246;2022-08-21T01:00:11;10.70;;;9.00;;
3801;SDS011;1916;51.798;12.246;2022-08-21T01:02:18;10.60;;;8.97;;
3801;SDS011;1916;51.798;12.246;2022-08-21T01:04:22;11.60;;;9.57;;
3801;SDS011;1916;51.798;12.246;2022-08-21T01:06:24;19.40;;;9.53;;
3801;SDS011;1916;51.798;12.246;2022-08-21T01:08:27;11.83;;;8.77;;
3801;SDS011;1916;51.798;12.246;2022-08-21T01:10:31;13.93;;;8.80;;
3801;SDS011;1916;51.798;12.246;2022-08-21T01:12:34;12.23;;;10.07;;
3801;SDS011;1916;51.798;12.246;2022-08-21T01:14:36;9.80;;;8.10;;
3801;SDS011;1916;51.798;12.246;2022-08-21T01:16:39;9.90;;;8.07;;
3801;SDS011;1916;51.798;12.246;2022-08-21T01:18:42;11.53;;;8.13;;
3801;SDS011;1916;51.798;12.246;2022-08-21T01:20:57;11.70;;;6.97;;
3801;SDS011;1916;51.798;12.246;2022-08-21T01:23:03;10.73;;;8.43;;
3801;SDS011;1916;51.798;12.246;2022-08-21T01:25:06;9.43;;;7.60;;
3801;SDS011;1916;51.798;12.246;2022-08-21T01:27:09;13.20;;;8.23;;
3801;SDS011;1916;51.798;12.246;2022-08-21T01:31:36;9.70;;;7.70;;
3801;SDS011;1916;51.798;12.246;2022-08-21T01:33:38;10.00;;;7.47;;
3801;SDS011;1916;51.798;12.246;2022-08-21T01:35:40;10.57;;;7.20;;
3801;SDS011;1916;51.798;12.246;2022-08-21T01:37:43;10.17;;;7.97;;
3801;SDS011;1916;51.798;12.246;2022-08-21T01:39:45;11.17;;;7.23;;
3801;SDS011;1916;51.798;12.246;2022-08-21T01:41:47;9.97;;;8.30;;
3801;SDS011;1916;51.798;12.246;2022-08-21T01:43:49;14.00;;;9.00;;
3801;SDS011;1916;51.798;12.246;2022-08-21T01:45:51;10.50;;;8.40;;
3801;SDS011;1916;51.798;12.246;2022-08-21T01:47:53;10.57;;;8.50;;
3801;SDS011;1916;51.798;12.246;2022-08-21T01:49:55;14.00;;;9.07;;
3801;SDS011;1916;51.798;12.246;2022-08-21T01:51:57;10.43;;;7.73;;
3801;SDS011;1916;51.798;12.246;2022-08-21T01:54:00;11.90;;;7.40;;
3801;SDS011;1916;51.798;12.246;2022-08-21T01:56:03;11.87;;;7.40;;
3801;SDS011;1916;51.798;12.246;2022-08-21T01:58:12;8.47;;;7.03;;
3801;SDS011;1916;51.798;12.246;2022-08-21T02:00:15;9.47;;;7.00;;
3801;SDS011;1916;51.798;12.246;2022-08-21T02:02:18;10.53;;;7.20;;
3801;SDS011;1916;51.798;12.246;2022-08-21T02:04:21;12.83;;;6.40;;
3801;SDS011;1916;51.798;12.246;2022-08-21T02:06:23;10.90;;;6.40;;
3801;SDS011;1916;51.798;12.246;2022-08-21T02:08:27;9.63;;;6.57;;
3801;SDS011;1916;51.798;12.246;2022-08-21T02:10:30;8.70;;;6.47;;
3801;SDS011;1916;51.798;12.246;2022-08-21T02:12:33;12.53;;;7.37;;
3801;SDS011;1916;51.798;12.246;2022-08-21T02:14:35;9.40;;;6.93;;
3801;SDS011;1916;51.798;12.246;2022-08-21T02:16:37;8.40;;;6.10;;
3801;SDS011;1916;51.798;12.246;2022-08-21T02:18:40;8.40;;;7.10;;
3801;SDS011;1916;51.798;12.246;2022-08-21T02:20:43;13.50;;;6.40;;
3801;SDS011;1916;51.798;12.246;2022-08-21T02:22:48;10.47;;;7.37;;
3801;SDS011;1916;51.798;12.246;2022-08-21T02:24:51;15.30;;;8.03;;
3801;SDS011;1916;51.798;12.246;2022-08-21T02:26:55;10.30;;;7.30;;
3801;SDS011;1916;51.798;12.246;2022-08-21T02:28:58;10.03;;;6.73;;
3801;SDS011;1916;51.798;12.246;2022-08-21T02:31:00;10.37;;;7.67;;
3801;SDS011;1916;51.798;12.246;2022-08-21T02:33:02;9.20;;;7.60;;
3801;SDS011;1916;51.798;12.246;2022-08-21T02:35:04;11.07;;;7.83;;
3801;SDS011;1916;51.798;12.246;2022-08-21T02:37:07;8.77;;;6.70;;
3801;SDS011;1916;51.798;12.246;2022-08-21T02:39:10;10.40;;;7.20;;
3801;SDS011;1916;51.798;12.246;2022-08-21T02:41:13;10.67;;;7.67;;
3801;SDS011;1916;51.798;12.246;2022-08-21T02:43:18;11.13;;;8.03;;
3801;SDS011;1916;51.798;12.246;2022-08-21T02:45:21;15.30;;;8.00;;
3801;SDS011;1916;51.798;12.246;2022-08-21T02:47:23;10.10;;;7.47;;
3801;SDS011;1916;51.798;12.246;2022-08-21T02:49:25;10.83;;;7.47;;
3801;SDS011;1916;51.798;12.246;2022-08-21T02:51:27;7.60;;;6.77;;
3801;SDS011;1916;51.798;12.246;2022-08-21T02:53:29;14.00;;;7.37;;
3801;SDS011;1916;51.798;12.246;2022-08-21T02:55:32;9.00;;;6.80;;
3801;SDS011;1916;51.798;12.246;2022-08-21T02:57:34;9.43;;;6.73;;
3801;SDS011;1916;51.798;12.246;2022-08-21T02:59:37;10.37;;;7.00;;
3801;SDS011;1916;51.798;12.246;2022-08-21T03:01:39;18.73;;;6.80;;
3801;SDS011;1916;51.798;12.246;2022-08-21T03:03:42;8.13;;;7.00;;
3801;SDS011;1916;51.798;12.246;2022-08-21T03:05:45;10.27;;;6.97;;
3801;SDS011;1916;51.798;12.246;2022-08-21T03:07:47;10.93;;;7.37;;
3801;SDS011;1916;51.798;12.246;2022-08-21T03:09:49;11.43;;;6.20;;
3801;SDS011;1916;51.798;12.246;2022-08-21T03:11:56;8.83;;;7.23;;
3801;SDS011;1916;51.798;12.246;2022-08-21T03:13:59;9.20;;;6.60;;
3801;SDS011;1916;51.798;12.246;2022-08-21T03:16:01;11.37;;;7.17;;
3801;SDS011;1916;51.798;12.246;2022-08-21T03:18:05;8.00;;;6.87;;
3801;SDS011;1916;51.798;12.246;2022-08-21T03:20:08;8.80;;;6.67;;
3801;SDS011;1916;51.798;12.246;2022-08-21T03:22:11;11.27;;;7.37;;
3801;SDS011;1916;51.798;12.246;2022-08-21T03:24:13;9.10;;;7.03;;
3801;SDS011;1916;51.798;12.246;2022-08-21T03:26:18;11.30;;;7.73;;
3801;SDS011;1916;51.798;12.246;2022-08-21T03:28:20;11.23;;;7.67;;
3801;SDS011;1916;51.798;12.246;2022-08-21T03:30:25;12.27;;;7.60;;
3801;SDS011;1916;51.798;12.246;2022-08-21T03:32:27;10.43;;;8.37;;
3801;SDS011;1916;51.798;12.246;2022-08-21T03:34:30;17.13;;;7.40;;
3801;SDS011;1916;51.798;12.246;2022-08-21T03:36:32;13.07;;;6.50;;
3801;SDS011;1916;51.798;12.246;2022-08-21T03:38:36;14.10;;;7.90;;
3801;SDS011;1916;51.798;12.246;2022-08-21T03:40:38;9.80;;;6.60;;
3801;SDS011;1916;51.798;12.246;2022-08-21T03:42:40;11.00;;;7.17;;
3801;SDS011;1916;51.798;12.246;2022-08-21T03:44:43;9.50;;;6.17;;
3801;SDS011;1916;51.798;12.246;2022-08-21T03:46:45;8.67;;;6.63;;
3801;SDS011;1916;51.798;12.246;2022-08-21T03:48:47;8.90;;;5.53;;
3801;SDS011;1916;51.798;12.246;2022-08-21T03:50:51;13.03;;;7.23;;
3801;SDS011;1916;51.798;12.246;2022-08-21T03:52:53;8.07;;;6.03;;
3801;SDS011;1916;51.798;12.246;2022-08-21T03:54:56;8.90;;;6.70;;
3801;SDS011;1916;51.798;12.246;2022-08-21T03:56:58;8.43;;;6.27;;
3801;SDS011;1916;51.798;12.246;2022-08-21T03:59:00;7.60;;;5.97;;
3801;SDS011;1916;51.798;12.246;2022-08-21T04:01:04;8.37;;;6.73;;
3801;SDS011;1916;51.798;12.246;2022-08-21T04:03:07;12.57;;;6.50;;
3801;SDS011;1916;51.798;12.246;2022-08-21T04:05:10;10.40;;;6.70;;
3801;SDS011;1916;51.798;12.246;2022-08-21T04:07:15;8.40;;;6.43;;
3801;SDS011;1916;51.798;12.246;2022-08-21T04:09:17;8.43;;;6.43;;
3801;SDS011;1916;51.798;12.246;2022-08-21T04:11:20;8.90;;;5.80;;
3801;SDS011;1916;51.798;12.246;2022-08-21T04:13:22;9.43;;;6.40;;
3801;SDS011;1916;51.798;12.246;2022-08-21T04:15:24;14.10;;;6.77;;
3801;SDS011;1916;51.798;12.246;2022-08-21T04:17:27;8.70;;;6.47;;
3801;SDS011;1916;51.798;12.246;2022-08-21T04:19:29;9.30;;;6.40;;
3801;SDS011;1916;51.798;12.246;2022-08-21T04:21:31;11.53;;;6.97;;
3801;SDS011;1916;51.798;12.246;2022-08-21T04:23:33;9.90;;;6.87;;
3801;SDS011;1916;51.798;12.246;2022-08-21T04:25:35;17.60;;;7.50;;
3801;SDS011;1916;51.798;12.246;2022-08-21T04:27:37;12.80;;;6.00;;
3801;SDS011;1916;51.798;12.246;2022-08-21T04:29:41;9.00;;;6.67;;
3801;SDS011;1916;51.798;12.246;2022-08-21T04:31:43;8.70;;;6.27;;
3801;SDS011;1916;51.798;12.246;2022-08-21T04:33:45;15.47;;;7.13;;
3801;SDS011;1916;51.798;12.246;2022-08-21T04:35:48;10.17;;;6.60;;
3801;SDS011;1916;51.798;12.246;2022-08-21T04:37:51;13.00;;;7.80;;
3801;SDS011;1916;51.798;12.246;2022-08-21T04:39:53;12.83;;;8.83;;
3801;SDS011;1916;51.798;12.246;2022-08-21T04:41:58;13.20;;;8.13;;
3801;SDS011;1916;51.798;12.246;2022-08-21T04:44:00;11.23;;;7.63;;
3801;SDS011;1916;51.798;12.246;2022-08-21T04:46:02;14.27;;;7.60;;
3801;SDS011;1916;51.798;12.246;2022-08-21T04:48:05;10.53;;;7.63;;
3801;SDS011;1916;51.798;12.246;2022-08-21T04:50:14;17.80;;;7.23;;
3801;SDS011;1916;51.798;12.246;2022-08-21T04:52:27;14.43;;;7.60;;
3801;SDS011;1916;51.798;12.246;2022-08-21T04:54:29;16.53;;;7.03;;
3801;SDS011;1916;51.798;12.246;2022-08-21T04:56:32;8.73;;;6.87;;
3801;SDS011;1916;51.798;12.246;2022-08-21T04:58:36;11.40;;;7.13;;
3801;SDS011;1916;51.798;12.246;2022-08-21T05:00:39;8.20;;;6.73;;
3801;SDS011;1916;51.798;12.246;2022-08-21T05:02:42;9.50;;;7.07;;
3801;SDS011;1916;51.798;12.246;2022-08-21T05:04:48;13.50;;;7.13;;
3801;SDS011;1916;51.798;12.246;2022-08-21T05:06:52;9.63;;;6.60;;
3801;SDS011;1916;51.798;12.246;2022-08-21T05:08:56;10.30;;;6.60;;
3801;SDS011;1916;51.798;12.246;2022-08-21T05:11:03;9.57;;;6.43;;
3801;SDS011;1916;51.798;12.246;2022-08-21T05:13:05;9.00;;;6.10;;
3801;SDS011;1916;51.798;12.246;2022-08-21T05:15:09;9.63;;;6.13;;
3801;SDS011;1916;51.798;12.246;2022-08-21T05:17:14;8.73;;;5.80;;
3801;SDS011;1916;51.798;12.246;2022-08-21T05:19:16;8.00;;;5.37;;
3801;SDS011;1916;51.798;12.246;2022-08-21T05:21:18;7.17;;;6.20;;
3801;SDS011;1916;51.798;12.246;2022-08-21T05:23:20;9.50;;;6.40;;
3801;SDS011;1916;51.798;12.246;2022-08-21T05:25:22;12.43;;;7.30;;
3801;SDS011;1916;51.798;12.246;2022-08-21T05:27:24;10.93;;;6.13;;
3801;SDS011;1916;51.798;12.246;2022-08-21T05:29:28;7.70;;;6.30;;
3801;SDS011;1916;51.798;12.246;2022-08-21T05:31:33;6.37;;;5.77;;
3801;SDS011;1916;51.798;12.246;2022-08-21T05:33:35;12.20;;;6.00;;
3801;SDS011;1916;51.798;12.246;2022-08-21T05:35:40;10.97;;;5.70;;
3801;SDS011;1916;51.798;12.246;2022-08-21T05:37:42;7.03;;;5.10;;
3801;SDS011;1916;51.798;12.246;2022-08-21T05:39:44;7.93;;;6.20;;
3801;SDS011;1916;51.798;12.246;2022-08-21T05:42:07;16.10;;;6.70;;
3801;SDS011;1916;51.798;12.246;2022-08-21T05:44:09;8.10;;;5.47;;
3801;SDS011;1916;51.798;12.246;2022-08-21T05:46:11;8.10;;;5.10;;
3801;SDS011;1916;51.798;12.246;2022-08-21T05:48:19;10.87;;;5.67;;
3801;SDS011;1916;51.798;12.246;2022-08-21T05:50:23;11.60;;;5.93;;
3801;SDS011;1916;51.798;12.246;2022-08-21T05:52:29;6.20;;;5.60;;
3801;SDS011;1916;51.798;12.246;2022-08-21T05:54:31;11.43;;;6.10;;
3801;SDS011;1916;51.798;12.246;2022-08-21T05:56:34;7.53;;;5.53;;
3801;SDS011;1916;51.798;12.246;2022-08-21T05:58:36;8.70;;;5.63;;
3801;SDS011;1916;51.798;12.246;2022-08-21T06:00:38;8.63;;;5.80;;
3801;SDS011;1916;51.798;12.246;2022-08-21T06:02:40;5.93;;;5.13;;
3801;SDS011;1916;51.798;12.246;2022-08-21T06:04:42;7.07;;;4.97;;
3801;SDS011;1916;51.798;12.246;2022-08-21T06:06:45;8.67;;;5.30;;
3801;SDS011;1916;51.798;12.246;2022-08-21T06:08:47;6.30;;;5.17;;
3801;SDS011;1916;51.798;12.246;2022-08-21T06:10:50;13.33;;;5.70;;
3801;SDS011;1916;51.798;12.246;2022-08-21T06:12:53;7.30;;;4.70;;
3801;SDS011;1916;51.798;12.246;2022-08-21T06:14:56;6.60;;;5.43;;
3801;SDS011;1916;51.798;12.246;2022-08-21T06:17:03;12.80;;;4.97;;
3801;SDS011;1916;51.798;12.246;2022-08-21T06:19:06;5.27;;;4.77;;
3801;SDS011;1916;51.798;12.246;2022-08-21T06:21:08;10.47;;;5.10;;
3801;SDS011;1916;51.798;12.246;2022-08-21T06:23:10;7.30;;;4.60;;
3801;SDS011;1916;51.798;12.246;2022-08-21T06:25:12;6.13;;;4.00;;
3801;SDS011;1916;51.798;12.246;2022-08-21T06:27:14;8.80;;;4.37;;
3801;SDS011;1916;51.798;12.246;2022-08-21T06:29:17;5.40;;;3.93;;
3801;SDS011;1916;51.798;12.246;2022-08-21T06:31:22;6.67;;;4.30;;
3801;SDS011;1916;51.798;12.246;2022-08-21T06:33:25;8.13;;;5.10;;
3801;SDS011;1916;51.798;12.246;2022-08-21T06:35:33;10.73;;;4.73;;
3801;SDS011;1916;51.798;12.246;2022-08-21T06:37:36;11.10;;;4.13;;
3801;SDS011;1916;51.798;12.246;2022-08-21T06:39:38;7.40;;;4.00;;
3801;SDS011;1916;51.798;12.246;2022-08-21T06:41:45;6.57;;;3.90;;
3801;SDS011;1916;51.798;12.246;2022-08-21T06:43:48;9.80;;;4.43;;
3801;SDS011;1916;51.798;12.246;2022-08-21T06:45:50;10.53;;;4.30;;
3801;SDS011;1916;51.798;12.246;2022-08-21T06:47:52;5.40;;;3.37;;
3801;SDS011;1916;51.798;12.246;2022-08-21T06:49:54;11.13;;;3.70;;
3801;SDS011;1916;51.798;12.246;2022-08-21T06:51:56;7.53;;;3.33;;
3801;SDS011;1916;51.798;12.246;2022-08-21T06:53:58;4.37;;;3.37;;
3801;SDS011;1916;51.798;12.246;2022-08-21T06:56:00;8.77;;;3.43;;
3801;SDS011;1916;51.798;12.246;2022-08-21T06:58:03;4.93;;;3.17;;
3801;SDS011;1916;51.798;12.246;2022-08-21T07:00:06;7.17;;;3.97;;
3801;SDS011;1916;51.798;12.246;2022-08-21T07:02:10;3.90;;;3.40;;
3801;SDS011;1916;51.798;12.246;2022-08-21T07:04:12;5.47;;;3.10;;
3801;SDS011;1916;51.798;12.246;2022-08-21T07:06:14;8.00;;;3.30;;
3801;SDS011;1916;51.798;12.246;2022-08-21T07:08:17;9.23;;;3.60;;
3801;SDS011;1916;51.798;12.246;2022-08-21T07:10:19;5.50;;;3.00;;
3801;SDS011;1916;51.798;12.246;2022-08-21T07:12:23;5.30;;;3.20;;
3801;SDS011;1916;51.798;12.246;2022-08-21T07:14:25;6.47;;;3.27;;
3801;SDS011;1916;51.798;12.246;2022-08-21T07:16:27;9.93;;;3.87;;
3801;SDS011;1916;51.798;12.246;2022-08-21T07:18:29;7.03;;;3.53;;
3801;SDS011;1916;51.798;12.246;2022-08-21T07:20:31;4.10;;;3.70;;
3801;SDS011;1916;51.798;12.246;2022-08-21T07:22:35;6.50;;;3.23;;
3801;SDS011;1916;51.798;12.246;2022-08-21T07:24:37;4.23;;;2.80;;
3801;SDS011;1916;51.798;12.246;2022-08-21T07:26:39;8.10;;;3.40;;
3801;SDS011;1916;51.798;12.246;2022-08-21T07:28:41;7.77;;;3.40;;
3801;SDS011;1916;51.798;12.246;2022-08-21T07:30:43;4.10;;;2.80;;
3801;SDS011;1916;51.798;12.246;2022-08-21T07:32:46;6.90;;;3.33;;
3801;SDS011;1916;51.798;12.246;2022-08-21T07:34:50;8.50;;;3.40;;
3801;SDS011;1916;51.798;12.246;2022-08-21T07:36:52;6.97;;;3.13;;
3801;SDS011;1916;51.798;12.246;2022-08-21T07:38:54;4.60;;;2.63;;
3801;SDS011;1916;51.798;12.246;2022-08-21T07:40:56;3.00;;;2.60;;
3801;SDS011;1916;51.798;12.246;2022-08-21T07:43:00;5.67;;;3.03;;
3801;SDS011;1916;51.798;12.246;2022-08-21T07:45:02;7.30;;;3.33;;
3801;SDS011;1916;51.798;12.246;2022-08-21T07:47:04;7.93;;;2.83;;
3801;SDS011;1916;51.798;12.246;2022-08-21T07:49:06;6.07;;;2.70;;
3801;SDS011;1916;51.798;12.246;2022-08-21T07:51:10;8.87;;;3.13;;
3801;SDS011;1916;51.798;12.246;2022-08-21T07:53:15;5.43;;;3.37;;
3801;SDS011;1916;51.798;12.246;2022-08-21T07:55:18;7.23;;;2.93;;
3801;SDS011;1916;51.798;12.246;2022-08-21T07:57:21;8.50;;;3.37;;
3801;SDS011;1916;51.798;12.246;2022-08-21T07:59:23;5.33;;;3.40;;
3801;SDS011;1916;51.798;12.246;2022-08-21T08:01:25;4.10;;;2.70;;
3801;SDS011;1916;51.798;12.246;2022-08-21T08:03:28;5.83;;;2.40;;
3801;SDS011;1916;51.798;12.246;2022-08-21T08:05:30;3.93;;;2.50;;
3801;SDS011;1916;51.798;12.246;2022-08-21T08:07:33;5.80;;;2.50;;
3801;SDS011;1916;51.798;12.246;2022-08-21T08:09:35;9.77;;;2.70;;
3801;SDS011;1916;51.798;12.246;2022-08-21T08:11:38;6.20;;;2.57;;
3801;SDS011;1916;51.798;12.246;2022-08-21T08:13:41;7.40;;;2.90;;
3801;SDS011;1916;51.798;12.246;2022-08-21T08:15:45;3.57;;;2.40;;
3801;SDS011;1916;51.798;12.246;2022-08-21T08:17:47;4.67;;;2.50;;
3801;SDS011;1916;51.798;12.246;2022-08-21T08:19:49;6.47;;;3.10;;
3801;SDS011;1916;51.798;12.246;2022-08-21T08:21:51;8.73;;;2.40;;
3801;SDS011;1916;51.798;12.246;2022-08-21T08:23:54;4.70;;;2.50;;
3801;SDS011;1916;51.798;12.246;2022-08-21T08:25:56;3.67;;;2.20;;
3801;SDS011;1916;51.798;12.246;2022-08-21T08:27:58;9.53;;;3.00;;
3801;SDS011;1916;51.798;12.246;2022-08-21T08:30:00;4.53;;;2.57;;
3801;SDS011;1916;51.798;12.246;2022-08-21T08:32:03;7.33;;;2.67;;
3801;SDS011;1916;51.798;12.246;2022-08-21T08:34:06;7.10;;;2.70;;
3801;SDS011;1916;51.798;12.246;2022-08-21T08:36:15;6.13;;;2.80;;
3801;SDS011;1916;51.798;12.246;2022-08-21T08:38:20;11.00;;;3.00;;
3801;SDS011;1916;51.798;12.246;2022-08-21T08:40:29;6.23;;;2.90;;
3801;SDS011;1916;51.798;12.246;2022-08-21T08:42:39;5.30;;;2.40;;
3801;SDS011;1916;51.798;12.246;2022-08-21T08:44:45;9.90;;;2.63;;
3801;SDS011;1916;51.798;12.246;2022-08-21T08:46:48;14.80;;;2.20;;
3801;SDS011;1916;51.798;12.246;2022-08-21T08:48:58;6.00;;;2.70;;
3801;SDS011;1916;51.798;12.246;2022-08-21T08:51:06;5.27;;;2.60;;
3801;SDS011;1916;51.798;12.246;2022-08-21T08:53:12;4.30;;;2.10;;
3801;SDS011;1916;51.798;12.246;2022-08-21T08:55:20;6.10;;;2.53;;
3801;SDS011;1916;51.798;12.246;2022-08-21T08:57:27;5.40;;;2.40;;
3801;SDS011;1916;51.798;12.246;2022-08-21T08:59:41;5.40;;;2.60;;
3801;SDS011;1916;51.798;12.246;2022-08-21T09:01:46;5.83;;;2.23;;
3801;SDS011;1916;51.798;12.246;2022-08-21T09:03:48;8.43;;;2.33;;
3801;SDS011;1916;51.798;12.246;2022-08-21T09:05:56;4.87;;;1.93;;
3801;SDS011;1916;51.798;12.246;2022-08-21T09:10:30;8.60;;;2.47;;
3801;SDS011;1916;51.798;12.246;2022-08-21T09:13:07;11.00;;;2.77;;
3801;SDS011;1916;51.798;12.246;2022-08-21T09:15:33;5.93;;;2.20;;
3801;SDS011;1916;51.798;12.246;2022-08-21T09:22:09;5.30;;;2.40;;
3801;SDS011;1916;51.798;12.246;2022-08-21T09:26:39;4.73;;;2.50;;
3801;SDS011;1916;51.798;12.246;2022-08-21T09:28:45;6.47;;;2.53;;
3801;SDS011;1916;51.798;12.246;2022-08-21T09:30:49;18.37;;;2.93;;
3801;SDS011;1916;51.798;12.246;2022-08-21T09:32:51;7.37;;;2.77;;
3801;SDS011;1916;51.798;12.246;2022-08-21T09:37:05;11.10;;;2.50;;
3801;SDS011;1916;51.798;12.246;2022-08-21T09:39:38;5.93;;;2.30;;
3801;SDS011;1916;51.798;12.246;2022-08-21T09:41:49;6.37;;;2.70;;
3801;SDS011;1916;51.798;12.246;2022-08-21T09:43:58;5.93;;;2.30;;
3801;SDS011;1916;51.798;12.246;2022-08-21T09:46:10;10.63;;;2.97;;
3801;SDS011;1916;51.798;12.246;2022-08-21T09:48:24;6.37;;;2.63;;
3801;SDS011;1916;51.798;12.246;2022-08-21T09:50:33;8.83;;;4.07;;
3801;SDS011;1916;51.798;12.246;2022-08-21T09:52:41;8.27;;;2.67;;
3801;SDS011;1916;51.798;12.246;2022-08-21T09:54:46;9.70;;;3.10;;
3801;SDS011;1916;51.798;12.246;2022-08-21T09:56:55;8.77;;;2.43;;
3801;SDS011;1916;51.798;12.246;2022-08-21T09:59:20;6.53;;;2.20;;
3801;SDS011;1916;51.798;12.246;2022-08-21T10:01:41;5.27;;;2.27;;
3801;SDS011;1916;51.798;12.246;2022-08-21T10:03:44;9.90;;;2.37;;
3801;SDS011;1916;51.798;12.246;2022-08-21T10:05:56;4.83;;;2.50;;
3801;SDS011;1916;51.798;12.246;2022-08-21T10:08:00;5.70;;;2.37;;
3801;SDS011;1916;51.798;12.246;2022-08-21T10:10:04;6.10;;;2.40;;
3801;SDS011;1916;51.798;12.246;2022-08-21T10:14:36;5.27;;;2.60;;
3801;SDS011;1916;51.798;12.246;2022-08-21T10:26:44;4.63;;;2.23;;
3801;SDS011;1916;51.798;12.246;2022-08-21T10:39:15;3.03;;;1.60;;
3801;SDS011;1916;51.798;12.246;2022-08-21T10:49:04;5.57;;;2.17;;
3801;SDS011;1916;51.798;12.246;2022-08-21T10:50:59;5.83;;;2.13;;
3801;SDS011;1916;51.798;12.246;2022-08-21T10:55:31;5.83;;;2.43;;
3801;SDS011;1916;51.798;12.246;2022-08-21T10:57:49;9.70;;;2.20;;
3801;SDS011;1916;51.798;12.246;2022-08-21T10:59:58;4.33;;;2.17;;
3801;SDS011;1916;51.798;12.246;2022-08-21T11:02:11;3.97;;;2.37;;
3801;SDS011;1916;51.798;12.246;2022-08-21T11:06:24;4.47;;;2.30;;
3801;SDS011;1916;51.798;12.246;2022-08-21T11:08:31;5.67;;;2.30;;
3801;SDS011;1916;51.798;12.246;2022-08-21T11:10:40;6.73;;;2.30;;
3801;SDS011;1916;51.798;12.246;2022-08-21T11:13:01;6.90;;;2.03;;
3801;SDS011;1916;51.798;12.246;2022-08-21T11:15:31;4.60;;;2.30;;
3801;SDS011;1916;51.798;12.246;2022-08-21T11:17:45;7.43;;;2.20;;
3801;SDS011;1916;51.798;12.246;2022-08-21T11:24:35;5.50;;;2.10;;
3801;SDS011;1916;51.798;12.246;2022-08-21T11:29:03;4.10;;;2.70;;
3801;SDS011;1916;51.798;12.246;2022-08-21T11:31:25;10.23;;;2.37;;
3801;SDS011;1916;51.798;12.246;2022-08-21T11:36:02;5.97;;;2.00;;
3801;SDS011;1916;51.798;12.246;2022-08-21T11:47:49;3.67;;;2.20;;
3801;SDS011;1916;51.798;12.246;2022-08-21T11:50:16;6.63;;;2.10;;
3801;SDS011;1916;51.798;12.246;2022-08-21T11:54:49;5.53;;;2.27;;
3801;SDS011;1916;51.798;12.246;2022-08-21T11:57:06;6.67;;;2.20;;
3801;SDS011;1916;51.798;12.246;2022-08-21T11:59:17;9.70;;;2.50;;
3801;SDS011;1916;51.798;12.246;2022-08-21T12:01:24;6.67;;;2.27;;
3801;SDS011;1916;51.798;12.246;2022-08-21T12:03:29;7.23;;;2.50;;
3801;SDS011;1916;51.798;12.246;2022-08-21T12:05:35;10.77;;;3.00;;
3801;SDS011;1916;51.798;12.246;2022-08-21T12:07:41;8.70;;;2.20;;
3801;SDS011;1916;51.798;12.246;2022-08-21T12:09:55;6.90;;;2.27;;
3801;SDS011;1916;51.798;12.246;2022-08-21T12:16:12;9.03;;;2.77;;
3801;SDS011;1916;51.798;12.246;2022-08-21T12:18:29;8.10;;;2.70;;
3801;SDS011;1916;51.798;12.246;2022-08-21T12:20:37;6.73;;;2.33;;
3801;SDS011;1916;51.798;12.246;2022-08-21T12:22:54;5.23;;;2.67;;
3801;SDS011;1916;51.798;12.246;2022-08-21T12:25:16;9.43;;;2.80;;
3801;SDS011;1916;51.798;12.246;2022-08-21T12:27:27;6.93;;;3.03;;
3801;SDS011;1916;51.798;12.246;2022-08-21T12:29:32;7.43;;;2.70;;
3801;SDS011;1916;51.798;12.246;2022-08-21T12:31:35;4.40;;;2.07;;
3801;SDS011;1916;51.798;12.246;2022-08-21T12:33:38;8.80;;;2.73;;
3801;SDS011;1916;51.798;12.246;2022-08-21T12:35:42;5.57;;;2.47;;
3801;SDS011;1916;51.798;12.246;2022-08-21T12:37:50;4.43;;;2.33;;
3801;SDS011;1916;51.798;12.246;2022-08-21T12:39:54;6.10;;;2.60;;
3801;SDS011;1916;51.798;12.246;2022-08-21T12:42:02;8.50;;;2.80;;
3801;SDS011;1916;51.798;12.246;2022-08-21T12:44:12;4.17;;;2.50;;
3801;SDS011;1916;51.798;12.246;2022-08-21T12:46:29;6.83;;;2.73;;
3801;SDS011;1916;51.798;12.246;2022-08-21T12:48:45;4.50;;;2.77;;
3801;SDS011;1916;51.798;12.246;2022-08-21T12:50:52;7.70;;;2.87;;
3801;SDS011;1916;51.798;12.246;2022-08-21T12:52:59;6.33;;;2.50;;
3801;SDS011;1916;51.798;12.246;2022-08-21T12:55:26;7.70;;;2.67;;
3801;SDS011;1916;51.798;12.246;2022-08-21T12:57:30;5.60;;;2.43;;
3801;SDS011;1916;51.798;12.246;2022-08-21T12:59:37;10.63;;;2.47;;
3801;SDS011;1916;51.798;12.246;2022-08-21T13:01:48;4.17;;;2.20;;
3801;SDS011;1916;51.798;12.246;2022-08-21T13:03:55;6.40;;;2.30;;
3801;SDS011;1916;51.798;12.246;2022-08-21T13:06:05;6.30;;;2.60;;
3801;SDS011;1916;51.798;12.246;2022-08-21T13:08:09;12.70;;;2.87;;
3801;SDS011;1916;51.798;12.246;2022-08-21T13:10:18;7.10;;;2.30;;
3801;SDS011;1916;51.798;12.246;2022-08-21T13:12:23;9.00;;;2.70;;
3801;SDS011;1916;51.798;12.246;2022-08-21T13:14:34;6.83;;;2.90;;
3801;SDS011;1916;51.798;12.246;2022-08-21T13:16:46;10.97;;;2.47;;
3801;SDS011;1916;51.798;12.246;2022-08-21T13:18:53;4.80;;;2.20;;
3801;SDS011;1916;51.798;12.246;2022-08-21T13:21:13;4.10;;;2.17;;
3801;SDS011;1916;51.798;12.246;2022-08-21T13:25:27;5.70;;;2.57;;
3801;SDS011;1916;51.798;12.246;2022-08-21T13:27:31;5.90;;;2.60;;
3801;SDS011;1916;51.798;12.246;2022-08-21T13:29:33;6.67;;;2.77;;
3801;SDS011;1916;51.798;12.246;2022-08-21T13:31:39;8.57;;;2.53;;
3801;SDS011;1916;51.798;12.246;2022-08-21T13:33:44;6.93;;;2.23;;
3801;SDS011;1916;51.798;12.246;2022-08-21T13:37:58;10.97;;;2.40;;
3801;SDS011;1916;51.798;12.246;2022-08-21T13:40:00;5.03;;;2.37;;
3801;SDS011;1916;51.798;12.246;2022-08-21T13:42:03;6.10;;;2.50;;
3801;SDS011;1916;51.798;12.246;2022-08-21T13:46:24;8.20;;;2.57;;
3801;SDS011;1916;51.798;12.246;2022-08-21T13:48:27;9.70;;;2.73;;
3801;SDS011;1916;51.798;12.246;2022-08-21T13:50:31;7.20;;;2.40;;
3801;SDS011;1916;51.798;12.246;2022-08-21T13:52:44;4.07;;;2.13;;
3801;SDS011;1916;51.798;12.246;2022-08-21T13:54:58;5.00;;;2.37;;
3801;SDS011;1916;51.798;12.246;2022-08-21T13:57:02;9.27;;;2.90;;
3801;SDS011;1916;51.798;12.246;2022-08-21T13:59:05;4.20;;;1.93;;
3801;SDS011;1916;51.798;12.246;2022-08-21T14:01:15;5.90;;;2.37;;